Time;durP1;ratioP1;P1;durP2;ratioP2;P2;SDS_P1;SDS_P2;PMS_P1;PMS_P2;Temp;Humidity;BMP_temperature;BMP_pressure;BME280_temperature;BME280_humidity;BME280_pressure;Samples;Min_cycle;Max_cycle;Signal;HPM_P1;HPM_P2
2024/01/16 00:00:52;;;;;;;11.93;8.80;;;;;;;;;;4915358;29;20497;-59
2024/01/16 00:03:17;;;;;;;9.77;7.03;;;;;;;;;;4933299;29;20035;-58
2024/01/16 00:05:43;;;;;;;9.02;6.80;;;;;;;;;;4937069;29;20466;-57
2024/01/16 00:08:08;;;;;;;8.40;6.70;;;;;;;;;;4936966;28;20498;-57
2024/01/16 00:10:33;;;;;;;12.60;7.90;;;;;;;;;;4935952;29;20048;-59
2024/01/16 00:12:59;;;;;;;9.23;6.35;;;;;;;;;;4938002;29;21470;-59
2024/01/16 00:15:24;;;;;;;8.43;5.63;;;;;;;;;;4936684;29;20103;-57
2024/01/16 00:17:51;;;;;;;8.77;6.03;;;;;;;;;;4936539;29;20068;-58
2024/01/16 00:20:16;;;;;;;6.22;4.40;;;;;;;;;;4928992;29;20094;-58
2024/01/16 00:22:42;;;;;;;4.63;3.72;;;;;;;;;;4925349;29;20040;-59
2024/01/16 00:25:07;;;;;;;4.78;4.28;;;;;;;;;;4911716;29;20468;-56
2024/01/16 00:27:33;;;;;;;5.63;5.13;;;;;;;;;;4920727;29;20068;-59
2024/01/16 00:29:58;;;;;;;5.20;3.42;;;;;;;;;;4937786;29;20031;-58
2024/01/16 00:32:23;;;;;;;4.72;4.18;;;;;;;;;;4925289;29;20043;-58
2024/01/16 00:34:49;;;;;;;3.67;3.28;;;;;;;;;;4916215;29;20041;-56
2024/01/16 00:37:14;;;;;;;3.50;2.83;;;;;;;;;;4922056;29;20044;-58
2024/01/16 00:39:40;;;;;;;3.80;2.33;;;;;;;;;;4936782;29;20028;-57
2024/01/16 00:42:05;;;;;;;3.85;2.75;;;;;;;;;;4926321;29;20047;-56
2024/01/16 00:44:31;;;;;;;3.45;2.10;;;;;;;;;;4913945;29;20388;-55
2024/01/16 00:46:57;;;;;;;3.83;3.03;;;;;;;;;;4913224;29;20033;-58
2024/01/16 00:49:22;;;;;;;2.55;1.92;;;;;;;;;;4912149;29;20036;-59
2024/01/16 00:51:48;;;;;;;4.03;1.48;;;;;;;;;;4915393;29;20041;-58
2024/01/16 00:54:13;;;;;;;2.33;1.85;;;;;;;;;;4916293;29;20028;-59
2024/01/16 00:56:38;;;;;;;3.22;1.75;;;;;;;;;;4917769;29;20127;-59
2024/01/16 00:59:04;;;;;;;2.30;1.40;;;;;;;;;;4936364;29;20023;-58
2024/01/16 01:01:29;;;;;;;1.98;1.65;;;;;;;;;;4933882;29;20047;-57
2024/01/16 01:03:54;;;;;;;3.00;2.65;;;;;;;;;;4934474;29;20032;-58
2024/01/16 01:06:20;;;;;;;2.72;2.53;;;;;;;;;;4935463;29;20052;-58
2024/01/16 01:08:45;;;;;;;2.42;1.67;;;;;;;;;;4937877;29;20043;-59
2024/01/16 01:11:11;;;;;;;2.13;1.70;;;;;;;;;;4936542;28;20031;-58
2024/01/16 01:13:37;;;;;;;2.13;1.88;;;;;;;;;;4936232;29;20070;-56
2024/01/16 01:16:03;;;;;;;2.10;1.90;;;;;;;;;;4936395;29;20075;-57
2024/01/16 01:18:28;;;;;;;2.65;2.17;;;;;;;;;;4934794;29;20063;-57
2024/01/16 01:20:53;;;;;;;2.13;1.92;;;;;;;;;;4935068;29;20118;-56
2024/01/16 01:23:19;;;;;;;2.13;1.20;;;;;;;;;;4930448;29;20050;-59
2024/01/16 01:25:44;;;;;;;2.67;1.92;;;;;;;;;;4937776;29;20027;-58
2024/01/16 01:28:11;;;;;;;2.50;1.70;;;;;;;;;;4932680;29;20071;-55
2024/01/16 01:30:36;;;;;;;4.07;1.73;;;;;;;;;;4936098;29;20059;-56
2024/01/16 01:33:02;;;;;;;2.22;1.95;;;;;;;;;;4940578;28;20055;-57
2024/01/16 01:35:27;;;;;;;1.75;1.65;;;;;;;;;;4936624;28;20024;-58
2024/01/16 01:37:53;;;;;;;1.42;1.05;;;;;;;;;;4935117;29;20063;-58
2024/01/16 01:40:18;;;;;;;1.33;0.88;;;;;;;;;;4939915;29;20028;-57
2024/01/16 01:42:43;;;;;;;1.63;1.45;;;;;;;;;;4938013;29;20075;-56
2024/01/16 01:45:10;;;;;;;1.15;0.77;;;;;;;;;;4939614;29;20043;-58
2024/01/16 01:47:36;;;;;;;1.58;1.25;;;;;;;;;;4933347;29;20063;-58
2024/01/16 01:50:03;;;;;;;1.02;0.88;;;;;;;;;;4937634;29;20648;-59
2024/01/16 01:52:31;;;;;;;1.75;1.65;;;;;;;;;;4934510;29;20047;-57
2024/01/16 01:54:57;;;;;;;1.63;1.52;;;;;;;;;;4933928;29;20036;-59
2024/01/16 01:57:23;;;;;;;0.90;0.85;;;;;;;;;;4936161;29;20048;-56
2024/01/16 01:59:49;;;;;;;1.35;1.23;;;;;;;;;;4939795;29;20023;-59
2024/01/16 02:02:15;;;;;;;1.20;1.05;;;;;;;;;;4939905;29;20043;-58
2024/01/16 02:04:42;;;;;;;1.25;1.17;;;;;;;;;;4940612;29;20032;-59
2024/01/16 02:07:07;;;;;;;1.10;0.57;;;;;;;;;;4933217;29;20036;-57
2024/01/16 02:09:33;;;;;;;1.25;1.08;;;;;;;;;;4917410;29;20363;-57
2024/01/16 02:11:58;;;;;;;2.25;0.88;;;;;;;;;;4917682;29;20056;-58
2024/01/16 02:14:24;;;;;;;1.10;0.60;;;;;;;;;;4916539;29;20055;-56
2024/01/16 02:16:49;;;;;;;0.45;0.40;;;;;;;;;;4910671;29;20048;-57
2024/01/16 02:19:15;;;;;;;1.63;1.25;;;;;;;;;;4917246;29;20060;-58
2024/01/16 02:21:49;;;;;;;0.75;0.60;;;;;;;;;;4918978;29;20136;-56
2024/01/16 02:24:15;;;;;;;1.63;1.17;;;;;;;;;;4917779;29;20398;-58
2024/01/16 02:26:41;;;;;;;1.02;0.60;;;;;;;;;;4918022;29;20115;-59
2024/01/16 02:29:07;;;;;;;2.22;0.70;;;;;;;;;;4919480;29;20036;-58
2024/01/16 02:31:33;;;;;;;1.13;1.02;;;;;;;;;;4917221;29;20035;-58
2024/01/16 02:33:59;;;;;;;0.95;0.95;;;;;;;;;;4918713;29;20036;-59
2024/01/16 02:36:25;;;;;;;1.38;0.80;;;;;;;;;;4920955;29;20039;-58
2024/01/16 02:38:51;;;;;;;2.13;0.70;;;;;;;;;;4919634;29;20741;-57
2024/01/16 02:41:17;;;;;;;1.42;1.13;;;;;;;;;;4919057;29;20039;-56
2024/01/16 02:43:43;;;;;;;1.30;0.90;;;;;;;;;;4917586;29;20028;-58
2024/01/16 02:46:11;;;;;;;3.13;1.85;;;;;;;;;;4918339;29;20032;-59
2024/01/16 02:48:37;;;;;;;2.63;2.42;;;;;;;;;;4919818;29;20414;-57
2024/01/16 02:51:03;;;;;;;3.55;2.45;;;;;;;;;;4924711;29;20039;-58
2024/01/16 02:53:29;;;;;;;2.85;2.03;;;;;;;;;;4919139;29;20040;-56
2024/01/16 02:55:54;;;;;;;7.05;3.58;;;;;;;;;;4914659;29;20036;-57
2024/01/16 02:58:21;;;;;;;6.57;3.22;;;;;;;;;;4914539;29;20553;-57
2024/01/16 03:00:46;;;;;;;5.35;2.83;;;;;;;;;;4914252;29;20056;-58
2024/01/16 03:03:12;;;;;;;4.85;3.08;;;;;;;;;;4932177;29;20050;-57
2024/01/16 03:05:37;;;;;;;4.57;3.58;;;;;;;;;;4935886;28;20109;-56
2024/01/16 03:08:03;;;;;;;5.30;3.60;;;;;;;;;;4938780;28;20039;-58
2024/01/16 03:10:29;;;;;;;4.95;4.25;;;;;;;;;;4926087;29;20086;-55
2024/01/16 03:12:54;;;;;;;4.75;3.88;;;;;;;;;;4931751;28;20498;-58
2024/01/16 03:15:20;;;;;;;5.10;4.22;;;;;;;;;;4930888;29;20745;-58
2024/01/16 03:17:45;;;;;;;4.80;3.30;;;;;;;;;;4927516;29;20039;-58
2024/01/16 03:20:11;;;;;;;5.13;4.63;;;;;;;;;;4938633;29;20486;-58
2024/01/16 03:22:37;;;;;;;6.30;4.72;;;;;;;;;;4936700;28;20051;-56
2024/01/16 03:25:02;;;;;;;5.25;3.35;;;;;;;;;;4939009;29;20027;-59
2024/01/16 03:27:28;;;;;;;5.15;4.57;;;;;;;;;;4936960;28;20050;-57
2024/01/16 03:29:53;;;;;;;5.55;4.03;;;;;;;;;;4935452;28;20054;-56
2024/01/16 03:32:19;;;;;;;4.43;3.20;;;;;;;;;;4931829;29;20513;-57
2024/01/16 03:34:44;;;;;;;4.50;3.25;;;;;;;;;;4937707;29;20024;-56
2024/01/16 03:37:10;;;;;;;6.00;4.00;;;;;;;;;;4929584;29;20044;-57
2024/01/16 03:39:35;;;;;;;4.68;3.60;;;;;;;;;;4912493;29;20497;-59
2024/01/16 03:42:00;;;;;;;4.65;4.05;;;;;;;;;;4916307;29;20092;-58
2024/01/16 03:44:26;;;;;;;7.78;5.20;;;;;;;;;;4908868;29;20076;-57
2024/01/16 03:46:51;;;;;;;6.28;4.97;;;;;;;;;;4922084;29;20036;-56
2024/01/16 03:49:16;;;;;;;7.35;6.28;;;;;;;;;;4940511;28;20067;-59
2024/01/16 03:51:46;;;;;;;9.15;5.47;;;;;;;;;;4936255;28;20091;-58
2024/01/16 03:54:13;;;;;;;7.25;4.75;;;;;;;;;;4915571;29;20468;-57
2024/01/16 03:56:38;;;;;;;5.40;3.90;;;;;;;;;;4916089;29;20036;-59
2024/01/16 03:59:04;;;;;;;6.85;3.63;;;;;;;;;;4915903;29;20043;-59
2024/01/16 04:01:33;;;;;;;4.32;3.17;;;;;;;;;;4916077;29;20119;-59
2024/01/16 04:03:58;;;;;;;;;;;;;;;;;;4917104;29;20538;-55
2024/01/16 04:06:24;;;;;;;5.40;4.57;;;;;;;;;;4916569;29;19969;-59
2024/01/16 04:08:49;;;;;;;7.40;5.82;;;;;;;;;;4935808;29;20026;-57
2024/01/16 04:11:15;;;;;;;7.07;4.22;;;;;;;;;;4934564;29;20031;-56
2024/01/16 04:13:41;;;;;;;5.60;3.85;;;;;;;;;;4934534;29;20035;-58
2024/01/16 04:16:06;;;;;;;6.38;3.95;;;;;;;;;;4929635;29;20420;-59
2024/01/16 04:18:40;;;;;;;5.90;4.07;;;;;;;;;;4932435;29;20105;-59
2024/01/16 04:21:06;;;;;;;4.63;4.22;;;;;;;;;;4933124;29;20118;-58
2024/01/16 04:23:32;;;;;;;6.38;5.20;;;;;;;;;;4932463;29;20075;-59
2024/01/16 04:25:58;;;;;;;6.28;4.80;;;;;;;;;;4931699;29;20036;-58
2024/01/16 04:28:23;;;;;;;6.00;4.32;;;;;;;;;;4934526;29;20035;-58
2024/01/16 04:30:49;;;;;;;4.97;3.88;;;;;;;;;;4934691;29;20042;-57
2024/01/16 04:33:14;;;;;;;3.90;3.20;;;;;;;;;;4916393;28;20403;-56
2024/01/16 04:35:40;;;;;;;4.63;3.90;;;;;;;;;;4914456;29;20020;-57
2024/01/16 04:38:05;;;;;;;5.40;3.53;;;;;;;;;;4911139;29;20040;-57
2024/01/16 04:40:30;;;;;;;5.45;4.30;;;;;;;;;;4913657;29;20091;-57
2024/01/16 04:42:56;;;;;;;5.53;5.00;;;;;;;;;;4927510;29;20070;-58
2024/01/16 04:45:21;;;;;;;4.25;2.95;;;;;;;;;;4934573;29;20122;-57
2024/01/16 04:47:47;;;;;;;4.07;3.53;;;;;;;;;;4929898;29;20044;-55
2024/01/16 04:50:12;;;;;;;5.88;3.45;;;;;;;;;;4934560;29;20044;-58
2024/01/16 04:52:37;;;;;;;6.25;4.22;;;;;;;;;;4936322;28;20047;-57
2024/01/16 04:55:03;;;;;;;5.68;5.18;;;;;;;;;;4933853;29;20024;-57
2024/01/16 04:57:29;;;;;;;12.48;7.40;;;;;;;;;;4933014;29;20044;-57
2024/01/16 04:59:54;;;;;;;8.30;5.80;;;;;;;;;;4934680;29;20035;-58
2024/01/16 05:02:20;;;;;;;12.05;6.32;;;;;;;;;;4941133;29;20039;-59
2024/01/16 05:04:49;;;;;;;10.32;5.20;;;;;;;;;;4940892;29;20028;-58
2024/01/16 05:07:14;;;;;;;;;;;;;;;;;;4927231;28;20557;-56
2024/01/16 05:09:39;;;;;;;8.60;4.75;;;;;;;;;;4919281;29;19922;-59
2024/01/16 05:12:05;;;;;;;9.05;5.50;;;;;;;;;;4919843;29;20036;-59
2024/01/16 05:14:30;;;;;;;7.68;5.65;;;;;;;;;;4914934;29;20402;-58
2024/01/16 05:16:56;;;;;;;9.15;6.28;;;;;;;;;;4919448;29;20103;-58
2024/01/16 05:19:21;;;;;;;9.75;7.22;;;;;;;;;;4920024;29;20453;-59
2024/01/16 05:21:46;;;;;;;10.65;7.07;;;;;;;;;;4912500;29;20036;-59
2024/01/16 05:24:12;;;;;;;9.20;6.70;;;;;;;;;;4917206;29;20118;-60
2024/01/16 05:26:37;;;;;;;9.00;6.63;;;;;;;;;;4919228;29;20668;-59
2024/01/16 05:29:03;;;;;;;11.73;8.52;;;;;;;;;;4936308;29;20110;-58
2024/01/16 05:31:28;;;;;;;11.48;7.50;;;;;;;;;;4936843;29;20028;-58
2024/01/16 05:33:53;;;;;;;9.32;5.68;;;;;;;;;;4920456;29;20020;-59
2024/01/16 05:36:19;;;;;;;7.88;4.93;;;;;;;;;;4920626;29;20498;-60
2024/01/16 05:38:44;;;;;;;6.82;4.40;;;;;;;;;;4937481;29;20443;-60
2024/01/16 05:41:10;;;;;;;7.13;4.72;;;;;;;;;;4938813;29;20037;-59
2024/01/16 05:43:35;;;;;;;5.90;4.72;;;;;;;;;;4922127;29;20036;-59
2024/01/16 05:46:00;;;;;;;7.03;4.60;;;;;;;;;;4918271;29;20040;-58
2024/01/16 05:48:26;;;;;;;5.63;4.90;;;;;;;;;;4934375;29;20924;-58
2024/01/16 05:50:51;;;;;;;9.43;6.72;;;;;;;;;;4938267;29;20529;-59
2024/01/16 05:53:17;;;;;;;8.00;7.03;;;;;;;;;;4924554;29;20063;-59
2024/01/16 05:55:42;;;;;;;7.20;6.03;;;;;;;;;;4917672;29;20122;-57
2024/01/16 05:58:07;;;;;;;6.97;6.38;;;;;;;;;;4914639;29;20052;-58
2024/01/16 06:00:34;;;;;;;5.85;4.00;;;;;;;;;;4914335;29;20036;-57
2024/01/16 06:02:59;;;;;;;6.55;5.07;;;;;;;;;;4931792;29;20063;-57
2024/01/16 06:05:25;;;;;;;6.53;5.43;;;;;;;;;;4937752;29;20028;-58
2024/01/16 06:07:50;;;;;;;8.95;7.85;;;;;;;;;;4937225;28;20083;-54
2024/01/16 06:10:15;;;;;;;8.32;6.07;;;;;;;;;;4933784;29;20028;-57
2024/01/16 06:12:42;;;;;;;6.72;3.83;;;;;;;;;;4941015;29;20043;-59
2024/01/16 06:15:07;;;;;;;6.53;4.70;;;;;;;;;;4934845;29;20044;-59
2024/01/16 06:17:34;;;;;;;8.80;5.15;;;;;;;;;;4934418;29;20066;-57
2024/01/16 06:19:59;;;;;;;8.85;7.38;;;;;;;;;;4938124;29;20028;-57
2024/01/16 06:22:24;;;;;;;14.30;9.38;;;;;;;;;;4935471;28;20028;-57
2024/01/16 06:24:50;;;;;;;6.10;4.50;;;;;;;;;;4932034;29;20394;-60
2024/01/16 06:27:18;;;;;;;4.88;3.03;;;;;;;;;;4921321;29;20080;-56
2024/01/16 06:29:48;;;;;;;11.93;10.70;;;;;;;;;;4913774;29;20048;-59
2024/01/16 06:32:13;;;;;;;13.27;12.27;;;;;;;;;;4922965;29;20116;-59
2024/01/16 06:34:39;;;;;;;9.38;8.57;;;;;;;;;;4938261;29;20027;-59
2024/01/16 06:37:04;;;;;;;7.30;6.30;;;;;;;;;;4943510;28;20038;-59
2024/01/16 06:39:30;;;;;;;5.97;5.38;;;;;;;;;;4938362;29;20023;-60
2024/01/16 06:41:56;;;;;;;4.70;3.78;;;;;;;;;;4937445;29;20099;-59
2024/01/16 06:44:21;;;;;;;8.98;4.85;;;;;;;;;;4938601;29;20028;-58
2024/01/16 06:46:47;;;;;;;17.70;8.55;;;;;;;;;;4930877;29;20067;-58
2024/01/16 06:49:12;;;;;;;13.93;6.03;;;;;;;;;;4920145;29;20038;-55
2024/01/16 06:51:38;;;;;;;15.80;8.02;;;;;;;;;;4918000;29;20044;-58
2024/01/16 06:54:03;;;;;;;18.13;7.55;;;;;;;;;;4915551;29;20096;-59
2024/01/16 06:56:29;;;;;;;18.85;8.23;;;;;;;;;;4916591;29;20119;-59
2024/01/16 06:58:55;;;;;;;24.48;12.80;;;;;;;;;;4911187;29;20985;-57
2024/01/16 07:01:21;;;;;;;21.23;11.00;;;;;;;;;;4910637;29;20435;-43
2024/01/16 07:03:46;;;;;;;16.85;9.65;;;;;;;;;;4932354;29;20027;-59
2024/01/16 07:06:12;;;;;;;22.95;9.95;;;;;;;;;;4933859;29;20042;-60
2024/01/16 07:08:37;;;;;;;23.10;12.45;;;;;;;;;;4939406;28;20371;-56
2024/01/16 07:11:07;;;;;;;20.33;9.30;;;;;;;;;;4936398;29;20043;-57
2024/01/16 07:13:33;;;;;;;15.18;8.63;;;;;;;;;;4938434;29;20086;-58
2024/01/16 07:15:58;;;;;;;14.10;9.18;;;;;;;;;;4935712;29;20059;-60
2024/01/16 07:18:24;;;;;;;19.58;9.70;;;;;;;;;;4922284;28;20044;-60
2024/01/16 07:20:49;;;;;;;12.10;7.72;;;;;;;;;;4916863;29;20035;-60
2024/01/16 07:23:15;;;;;;;10.52;8.40;;;;;;;;;;4932824;29;20154;-56
2024/01/16 07:25:40;;;;;;;12.10;6.95;;;;;;;;;;4938602;29;20023;-57
2024/01/16 07:28:06;;;;;;;12.00;6.78;;;;;;;;;;4924263;28;20047;-57
2024/01/16 07:30:31;;;;;;;14.90;8.20;;;;;;;;;;4917564;29;20060;-56
2024/01/16 07:32:56;;;;;;;13.20;7.50;;;;;;;;;;4917869;29;20043;-58
2024/01/16 07:35:22;;;;;;;15.95;8.25;;;;;;;;;;4917372;29;20091;-57
2024/01/16 07:37:47;;;;;;;17.25;10.82;;;;;;;;;;4915417;29;20036;-55
2024/01/16 07:40:12;;;;;;;14.90;9.73;;;;;;;;;;4916220;29;20040;-55
2024/01/16 07:42:38;;;;;;;14.57;11.20;;;;;;;;;;4928868;29;20122;-56
2024/01/16 07:45:04;;;;;;;15.75;10.15;;;;;;;;;;4936747;29;20062;-57
2024/01/16 07:47:33;;;;;;;20.65;13.18;;;;;;;;;;4935035;29;20033;-55
2024/01/16 07:49:59;;;;;;;16.77;11.05;;;;;;;;;;4930439;29;20114;-56
2024/01/16 07:52:25;;;;;;;11.27;7.38;;;;;;;;;;4932869;29;20071;-57
2024/01/16 07:54:50;;;;;;;11.23;7.53;;;;;;;;;;4932749;29;20457;-55
2024/01/16 07:57:16;;;;;;;10.98;6.63;;;;;;;;;;4926811;29;20052;-56
2024/01/16 07:59:42;;;;;;;11.25;6.88;;;;;;;;;;4931507;29;20106;-57
2024/01/16 08:02:08;;;;;;;10.20;7.38;;;;;;;;;;4935643;29;20040;-57
2024/01/16 08:04:34;;;;;;;11.48;6.75;;;;;;;;;;4933332;29;21658;-57
2024/01/16 08:07:00;;;;;;;10.85;7.53;;;;;;;;;;4927117;29;20043;-53
2024/01/16 08:09:25;;;;;;;12.93;8.38;;;;;;;;;;4917976;29;20458;-56
2024/01/16 08:11:51;;;;;;;11.60;8.18;;;;;;;;;;4919813;29;20110;-57
2024/01/16 08:14:17;;;;;;;15.60;9.35;;;;;;;;;;4932437;29;20032;-55
2024/01/16 08:16:42;;;;;;;14.38;10.05;;;;;;;;;;4925998;29;20178;-57
2024/01/16 08:19:07;;;;;;;12.43;7.47;;;;;;;;;;4933331;29;20039;-57
2024/01/16 08:21:33;;;;;;;11.88;8.05;;;;;;;;;;4927423;28;20042;-56
2024/01/16 08:23:58;;;;;;;14.25;9.65;;;;;;;;;;4908633;29;20034;-56
2024/01/16 08:26:24;;;;;;;12.02;8.25;;;;;;;;;;4914353;29;20111;-58
2024/01/16 08:28:50;;;;;;;12.85;9.93;;;;;;;;;;4911852;29;20405;-53
2024/01/16 08:31:19;;;;;;;12.48;10.95;;;;;;;;;;4914064;29;20032;-58
2024/01/16 08:33:45;;;;;;;17.38;11.73;;;;;;;;;;4913192;29;20068;-57
2024/01/16 08:36:11;;;;;;;16.00;11.50;;;;;;;;;;4915640;29;20032;-57
2024/01/16 08:38:36;;;;;;;13.70;10.10;;;;;;;;;;4911628;29;20505;-57
2024/01/16 08:41:06;;;;;;;11.88;9.55;;;;;;;;;;4911114;29;20177;-57
2024/01/16 08:43:31;;;;;;;17.85;13.27;;;;;;;;;;4913489;29;20032;-56
2024/01/16 08:45:56;;;;;;;13.30;11.20;;;;;;;;;;4916116;29;20431;-57
2024/01/16 08:48:22;;;;;;;14.80;10.35;;;;;;;;;;4913156;29;20051;-57
2024/01/16 08:50:47;;;;;;;13.25;9.23;;;;;;;;;;4917535;29;20032;-56
2024/01/16 08:53:13;;;;;;;13.32;9.43;;;;;;;;;;4911550;29;20040;-58
2024/01/16 08:55:38;;;;;;;13.38;11.93;;;;;;;;;;4913742;29;20028;-56
2024/01/16 08:58:03;;;;;;;13.45;9.75;;;;;;;;;;4906398;29;20044;-54
2024/01/16 09:00:29;;;;;;;15.48;12.65;;;;;;;;;;4915340;29;20028;-58
2024/01/16 09:02:54;;;;;;;15.50;13.13;;;;;;;;;;4912581;29;20147;-58
2024/01/16 09:05:25;;;;;;;17.25;13.13;;;;;;;;;;4916795;29;20024;-58
2024/01/16 09:07:50;;;;;;;12.85;11.18;;;;;;;;;;4922941;29;20050;-54
2024/01/16 09:10:17;;;;;;;12.80;8.73;;;;;;;;;;4933336;29;20035;-57
2024/01/16 09:12:42;;;;;;;11.98;9.32;;;;;;;;;;4930796;29;20321;-55
2024/01/16 09:15:08;;;;;;;10.05;9.05;;;;;;;;;;4932783;29;20119;-56
2024/01/16 09:17:33;;;;;;;9.90;8.57;;;;;;;;;;4921640;29;20043;-57
2024/01/16 09:19:59;;;;;;;9.25;7.90;;;;;;;;;;4909703;29;20032;-55
2024/01/16 09:22:24;;;;;;;12.18;9.88;;;;;;;;;;4913558;29;20044;-54
2024/01/16 09:24:50;;;;;;;10.93;8.23;;;;;;;;;;4912430;29;20036;-55
2024/01/16 09:27:16;;;;;;;9.40;8.38;;;;;;;;;;4918976;29;20063;-57
2024/01/16 09:29:42;;;;;;;9.55;7.93;;;;;;;;;;4928652;29;20031;-55
2024/01/16 09:32:07;;;;;;;13.73;10.20;;;;;;;;;;4930692;28;20084;-58
2024/01/16 09:34:33;;;;;;;13.27;11.77;;;;;;;;;;4928034;29;20943;-56
2024/01/16 09:37:00;;;;;;;14.93;10.45;;;;;;;;;;4929840;29;20052;-58
2024/01/16 09:39:26;;;;;;;16.75;12.32;;;;;;;;;;4933382;28;20067;-57
2024/01/16 09:41:51;;;;;;;18.42;12.38;;;;;;;;;;4933488;29;20058;-57
2024/01/16 09:44:17;;;;;;;15.48;13.32;;;;;;;;;;4941883;28;20031;-53
2024/01/16 09:46:46;;;;;;;19.80;15.32;;;;;;;;;;4938960;29;20125;-57
2024/01/16 09:49:12;;;;;;;15.18;11.75;;;;;;;;;;4936313;29;20225;-56
2024/01/16 09:51:37;;;;;;;21.27;14.98;;;;;;;;;;4932241;29;20034;-57
2024/01/16 09:54:08;;;;;;;19.73;15.43;;;;;;;;;;4939116;29;20016;-57
2024/01/16 09:56:39;;;;;;;13.10;10.63;;;;;;;;;;4935270;29;20063;-57
2024/01/16 09:59:06;;;;;;;15.57;11.35;;;;;;;;;;4933437;29;20153;-58
2024/01/16 10:01:33;;;;;;;12.38;10.30;;;;;;;;;;4939180;29;20095;-56
2024/01/16 10:03:59;;;;;;;10.18;7.90;;;;;;;;;;4937726;29;20059;-55
2024/01/16 10:06:27;;;;;;;9.38;7.88;;;;;;;;;;4937690;28;20719;-55
2024/01/16 10:08:52;;;;;;;9.15;6.95;;;;;;;;;;4937573;28;20579;-54
2024/01/16 10:11:18;;;;;;;13.27;9.98;;;;;;;;;;4934909;29;20028;-52
2024/01/16 10:13:44;;;;;;;17.50;11.02;;;;;;;;;;4934053;29;20111;-54
2024/01/16 10:16:09;;;;;;;13.30;9.07;;;;;;;;;;4946352;28;20098;-53
2024/01/16 10:18:37;;;;;;;9.85;7.85;;;;;;;;;;4935783;29;20134;-50
2024/01/16 10:21:02;;;;;;;11.30;8.48;;;;;;;;;;4935054;29;20031;-50
2024/01/16 10:23:34;;;;;;;9.85;6.30;;;;;;;;;;4922577;29;20104;-52
2024/01/16 10:26:06;;;;;;;11.30;9.13;;;;;;;;;;4914998;29;20388;-54
2024/01/16 10:28:35;;;;;;;9.93;8.85;;;;;;;;;;4912912;29;20073;-56
2024/01/16 10:31:08;;;;;;;10.57;9.25;;;;;;;;;;4915633;29;20032;-52
2024/01/16 10:33:33;;;;;;;12.48;11.23;;;;;;;;;;4917241;29;20036;-55
2024/01/16 10:36:19;;;;;;;8.82;7.97;;;;;;;;;;4918312;29;20431;-56
2024/01/16 10:38:45;;;;;;;10.90;7.78;;;;;;;;;;4931710;29;20043;-52
2024/01/16 10:41:14;;;;;;;12.10;8.13;;;;;;;;;;4934835;29;20036;-52
2024/01/16 10:43:39;;;;;;;;;;;;;;;;;;4933662;29;20031;-52
2024/01/16 10:46:12;;;;;;;10.32;6.40;;;;;;;;;;4930447;29;19922;-52
2024/01/16 10:48:39;;;;;;;9.30;6.97;;;;;;;;;;4936775;29;20095;-53
2024/01/16 10:51:11;;;;;;;7.80;5.85;;;;;;;;;;4936854;29;20036;-56
2024/01/16 10:53:39;;;;;;;8.93;6.00;;;;;;;;;;4933286;29;20050;-56
2024/01/16 10:56:12;;;;;;;9.02;7.00;;;;;;;;;;4939312;29;20027;-56
2024/01/16 10:58:41;;;;;;;7.80;5.85;;;;;;;;;;4938692;29;20032;-55
2024/01/16 11:01:11;;;;;;;10.90;7.35;;;;;;;;;;4937202;29;20031;-56
2024/01/16 11:03:50;;;;;;;6.45;5.05;;;;;;;;;;4932673;29;20040;-54
2024/01/16 11:06:17;;;;;;;7.22;5.25;;;;;;;;;;4937126;29;20063;-51
2024/01/16 11:08:47;;;;;;;6.13;4.95;;;;;;;;;;4913478;29;20131;-55
2024/01/16 11:11:13;;;;;;;6.38;4.88;;;;;;;;;;4914804;29;20040;-52
2024/01/16 11:13:41;;;;;;;6.90;5.20;;;;;;;;;;4916447;29;20521;-54
2024/01/16 11:16:10;;;;;;;5.93;4.47;;;;;;;;;;4917195;29;20060;-54
2024/01/16 11:18:35;;;;;;;4.38;3.80;;;;;;;;;;4916165;29;20032;-55
2024/01/16 11:21:04;;;;;;;7.43;5.68;;;;;;;;;;4913722;29;20360;-53
2024/01/16 11:23:29;;;;;;;7.18;5.38;;;;;;;;;;4934254;29;20119;-56
2024/01/16 11:25:55;;;;;;;7.28;6.25;;;;;;;;;;4935149;29;20023;-59
2024/01/16 11:28:26;;;;;;;7.25;6.00;;;;;;;;;;4921228;29;20032;-56
2024/01/16 11:30:51;;;;;;;8.00;5.88;;;;;;;;;;4910349;29;20031;-54
2024/01/16 11:33:32;;;;;;;9.27;5.78;;;;;;;;;;4924868;29;20035;-53
2024/01/16 11:35:58;;;;;;;6.95;5.22;;;;;;;;;;4942535;29;20034;-56
2024/01/16 11:38:26;;;;;;;11.00;7.30;;;;;;;;;;4918326;29;20127;-54
2024/01/16 11:40:55;;;;;;;8.45;7.10;;;;;;;;;;4917886;29;20031;-56
2024/01/16 11:43:33;;;;;;;;;;;;;;;;;;4913295;29;20088;-56
2024/01/16 11:46:06;;;;;;;8.95;6.35;;;;;;;;;;4920988;29;19915;-57
2024/01/16 11:48:31;;;;;;;5.80;5.00;;;;;;;;;;4931789;29;20046;-57
2024/01/16 11:50:56;;;;;;;7.38;5.50;;;;;;;;;;4936219;29;20114;-53
2024/01/16 11:53:32;;;;;;;8.82;6.22;;;;;;;;;;4935056;29;20865;-55
2024/01/16 11:56:09;;;;;;;11.57;8.73;;;;;;;;;;4935333;29;20738;-55
2024/01/16 11:59:02;;;;;;;21.88;19.95;;;;;;;;;;4935085;29;20046;-57
2024/01/16 12:01:29;;;;;;;;;;;;;;;;;;4932758;29;20573;-56
2024/01/16 12:04:04;;;;;;;32.78;29.77;;;;;;;;;;4935352;29;19915;-52
2024/01/16 12:06:30;;;;;;;26.63;24.05;;;;;;;;;;4935111;28;20563;-51
2024/01/16 12:09:14;;;;;;;24.52;22.45;;;;;;;;;;4914600;29;20043;-57
2024/01/16 12:11:45;;;;;;;19.48;17.55;;;;;;;;;;4913637;29;20056;-56
2024/01/16 12:14:14;;;;;;;20.40;18.60;;;;;;;;;;4916283;29;20024;-54
2024/01/16 12:16:39;;;;;;;18.35;16.48;;;;;;;;;;4917018;29;20086;-55
2024/01/16 12:19:06;;;;;;;16.65;14.93;;;;;;;;;;4911517;29;20119;-53
2024/01/16 12:21:34;;;;;;;13.15;11.75;;;;;;;;;;4917695;29;20028;-52
2024/01/16 12:23:59;;;;;;;10.48;9.23;;;;;;;;;;4914487;29;20028;-55
2024/01/16 12:26:25;;;;;;;11.57;9.85;;;;;;;;;;4919049;29;20063;-56
2024/01/16 12:28:54;;;;;;;12.05;8.10;;;;;;;;;;4933931;29;20024;-54
2024/01/16 12:31:19;;;;;;;11.43;8.43;;;;;;;;;;4934583;29;20504;-54
2024/01/16 12:33:44;;;;;;;9.65;8.65;;;;;;;;;;4916570;29;20036;-56
2024/01/16 12:36:10;;;;;;;10.77;8.52;;;;;;;;;;4915482;29;20024;-55
2024/01/16 12:38:36;;;;;;;10.45;8.15;;;;;;;;;;4913701;29;20495;-55
2024/01/16 12:41:05;;;;;;;12.18;8.50;;;;;;;;;;4912414;29;20471;-56
2024/01/16 12:43:32;;;;;;;13.98;9.48;;;;;;;;;;4915875;29;20519;-56
2024/01/16 12:45:58;;;;;;;13.27;10.00;;;;;;;;;;4914348;29;20035;-57
2024/01/16 12:48:25;;;;;;;10.48;7.97;;;;;;;;;;4914845;29;20119;-57
2024/01/16 12:50:50;;;;;;;12.73;9.07;;;;;;;;;;4914832;29;20032;-52
2024/01/16 12:53:18;;;;;;;11.65;9.05;;;;;;;;;;4907748;29;20051;-55
2024/01/16 12:55:45;;;;;;;11.60;9.55;;;;;;;;;;4917169;29;20020;-55
2024/01/16 12:58:19;;;;;;;12.80;9.13;;;;;;;;;;4911343;29;20052;-55
2024/01/16 13:00:50;;;;;;;12.63;9.65;;;;;;;;;;4915375;29;20036;-55
2024/01/16 13:03:30;;;;;;;10.52;8.43;;;;;;;;;;4932649;29;20490;-54
2024/01/16 13:05:57;;;;;;;11.48;9.68;;;;;;;;;;4935469;29;20039;-57
2024/01/16 13:08:26;;;;;;;13.25;9.05;;;;;;;;;;4936844;28;20036;-55
2024/01/16 13:11:08;;;;;;;10.55;9.52;;;;;;;;;;4933975;29;20035;-56
2024/01/16 13:13:34;;;;;;;13.23;8.52;;;;;;;;;;4934787;29;20119;-56
2024/01/16 13:16:01;;;;;;;10.13;9.13;;;;;;;;;;4934165;29;20052;-56
2024/01/16 13:18:28;;;;;;;10.85;8.85;;;;;;;;;;4921069;28;20107;-55
2024/01/16 13:20:55;;;;;;;9.93;7.93;;;;;;;;;;4918682;29;20501;-56
2024/01/16 13:23:22;;;;;;;8.57;6.88;;;;;;;;;;4920772;29;20443;-56
2024/01/16 13:25:48;;;;;;;11.55;7.85;;;;;;;;;;4919194;29;20035;-56
2024/01/16 13:28:18;;;;;;;12.20;9.20;;;;;;;;;;4919388;29;20060;-54
2024/01/16 13:30:44;;;;;;;10.95;9.50;;;;;;;;;;4909612;29;20036;-53
2024/01/16 13:33:10;;;;;;;10.82;7.18;;;;;;;;;;4932984;29;20073;-55
2024/01/16 13:35:40;;;;;;;10.48;7.97;;;;;;;;;;4936582;29;20118;-54
2024/01/16 13:38:06;;;;;;;9.32;6.93;;;;;;;;;;4939290;29;20063;-55
2024/01/16 13:40:32;;;;;;;9.65;7.88;;;;;;;;;;4940851;29;20409;-55
2024/01/16 13:42:58;;;;;;;8.85;7.95;;;;;;;;;;4933635;29;20070;-54
2024/01/16 13:45:24;;;;;;;9.10;7.00;;;;;;;;;;4936725;29;20023;-57
2024/01/16 13:47:49;;;;;;;9.43;6.93;;;;;;;;;;4939046;29;20028;-55
2024/01/16 13:50:15;;;;;;;6.85;5.90;;;;;;;;;;4939586;29;20084;-57
2024/01/16 13:52:40;;;;;;;10.55;5.95;;;;;;;;;;4937346;29;20110;-54
2024/01/16 13:55:10;;;;;;;7.38;5.07;;;;;;;;;;4936479;29;20031;-54
2024/01/16 13:57:36;;;;;;;7.95;7.18;;;;;;;;;;4935475;29;20044;-56
2024/01/16 14:00:06;;;;;;;8.10;5.93;;;;;;;;;;4938230;29;20051;-56
2024/01/16 14:02:32;;;;;;;8.00;6.88;;;;;;;;;;4939298;29;20470;-55
2024/01/16 14:04:57;;;;;;;11.15;7.53;;;;;;;;;;4939021;29;20056;-57
2024/01/16 14:07:23;;;;;;;10.93;6.68;;;;;;;;;;4935709;28;20043;-57
2024/01/16 14:09:48;;;;;;;10.98;8.88;;;;;;;;;;4937013;29;20027;-54
2024/01/16 14:12:14;;;;;;;10.75;8.43;;;;;;;;;;4929348;29;20081;-58
2024/01/16 14:14:41;;;;;;;10.30;8.20;;;;;;;;;;4939734;29;20051;-54
2024/01/16 14:17:06;;;;;;;10.30;8.05;;;;;;;;;;4937295;29;20050;-58
2024/01/16 14:19:34;;;;;;;11.40;8.70;;;;;;;;;;4937473;29;20043;-57
2024/01/16 14:22:00;;;;;;;11.48;10.07;;;;;;;;;;4929628;29;20126;-55
2024/01/16 14:24:26;;;;;;;13.40;8.35;;;;;;;;;;4935253;29;20118;-55
2024/01/16 14:26:51;;;;;;;8.35;6.28;;;;;;;;;;4934067;28;20047;-55
2024/01/16 14:29:16;;;;;;;10.45;8.82;;;;;;;;;;4918747;29;20120;-57
2024/01/16 14:31:42;;;;;;;12.18;8.13;;;;;;;;;;4919447;29;20131;-57
2024/01/16 14:34:14;;;;;;;8.27;7.38;;;;;;;;;;4939296;29;20038;-55